createdAt,value
2022-11-04T00:01:31.946Z,1.87
2022-11-04T00:04:00.011Z,2.20
2022-11-04T00:06:27.957Z,1.53
2022-11-04T00:08:57.917Z,2.20
2022-11-04T00:11:44.095Z,2.50
2022-11-04T00:14:12.958Z,1.40
2022-11-04T00:17:00.096Z,0.90
2022-11-04T00:19:28.461Z,1.33
2022-11-04T00:22:14.063Z,2.07
2022-11-04T00:24:59.595Z,0.90
2022-11-04T00:27:45.130Z,1.00
2022-11-04T00:30:13.171Z,1.13
2022-11-04T00:33:00.152Z,1.00
2022-11-04T00:35:28.097Z,1.43
2022-11-04T00:37:56.053Z,0.80
2022-11-04T00:40:23.972Z,1.00
2022-11-04T00:42:51.901Z,1.13
2022-11-04T00:45:19.828Z,1.30
2022-11-04T00:47:49.154Z,0.53
2022-11-04T00:50:17.241Z,0.70
2022-11-04T00:52:45.140Z,0.70
2022-11-04T00:55:13.099Z,1.17
2022-11-04T00:57:41.034Z,0.90
2022-11-04T01:00:10.305Z,0.80
2022-11-04T01:02:38.294Z,1.27
2022-11-04T01:05:08.357Z,1.10
2022-11-04T01:07:41.035Z,0.70
2022-11-04T01:10:11.861Z,1.10
2022-11-04T01:12:39.787Z,0.87
2022-11-04T01:15:08.400Z,0.53
2022-11-04T01:17:36.329Z,0.60
2022-11-04T01:20:04.816Z,0.90
2022-11-04T01:22:34.111Z,1.00
2022-11-04T01:25:02.037Z,0.70
2022-11-04T01:27:29.971Z,0.87
2022-11-04T01:29:57.943Z,0.70
2022-11-04T01:32:25.896Z,0.70
2022-11-04T01:34:53.823Z,0.50
2022-11-04T01:37:21.753Z,0.60
2022-11-04T01:39:51.026Z,0.40
2022-11-04T01:42:22.433Z,0.90
2022-11-04T01:44:54.000Z,0.60
2022-11-04T01:47:26.760Z,0.50
2022-11-04T01:49:58.966Z,0.60
2022-11-04T01:52:32.035Z,0.60
2022-11-04T01:55:06.501Z,0.50
2022-11-04T01:57:37.805Z,0.77
2022-11-04T02:00:08.562Z,0.43
2022-11-04T02:02:38.527Z,0.70
2022-11-04T02:05:07.177Z,0.50
2022-11-04T02:07:35.761Z,0.60
2022-11-04T02:10:05.620Z,0.70
2022-11-04T02:12:50.867Z,0.70
2022-11-04T02:15:24.573Z,0.63
2022-11-04T02:18:20.245Z,0.60
2022-11-04T02:21:22.852Z,0.50
2022-11-04T02:24:30.229Z,0.60
2022-11-04T02:27:25.188Z,0.40
2022-11-04T02:30:10.679Z,0.50
2022-11-04T02:33:00.020Z,0.60
2022-11-04T02:35:34.193Z,0.60
2022-11-04T02:38:11.212Z,0.50
2022-11-04T02:40:44.087Z,1.00
2022-11-04T02:43:18.732Z,0.70
2022-11-04T02:45:50.288Z,0.60
2022-11-04T02:48:25.935Z,0.50
2022-11-04T02:50:59.456Z,0.40
2022-11-04T02:53:32.207Z,0.57
2022-11-04T02:56:02.085Z,0.50
2022-11-04T02:58:34.496Z,0.50
2022-11-04T03:01:06.201Z,0.60
2022-11-04T03:03:39.573Z,0.50
2022-11-04T03:06:11.480Z,0.50
2022-11-04T03:08:42.306Z,0.53
2022-11-04T03:11:14.957Z,0.70
2022-11-04T03:13:48.042Z,0.87
2022-11-04T03:16:20.551Z,0.50
2022-11-04T03:18:59.297Z,0.73
2022-11-04T03:21:29.311Z,0.40
2022-11-04T03:23:57.450Z,0.50
2022-11-04T03:26:31.053Z,0.57
2022-11-04T03:29:10.080Z,0.50
2022-11-04T03:31:46.176Z,0.50
2022-11-04T03:34:14.166Z,0.70
2022-11-04T03:36:42.267Z,0.40
2022-11-04T03:39:10.438Z,0.40
2022-11-04T03:41:43.873Z,0.50
2022-11-04T03:44:11.902Z,0.40
2022-11-04T03:46:41.891Z,0.63
2022-11-04T03:49:11.744Z,0.50
2022-11-04T03:51:39.686Z,0.50
2022-11-04T03:54:09.382Z,0.70
2022-11-04T03:57:09.597Z,0.60
2022-11-04T04:00:07.035Z,0.50
2022-11-04T04:02:54.329Z,0.70
2022-11-04T04:05:26.455Z,0.80
2022-11-04T04:08:00.055Z,0.43
2022-11-04T04:10:40.493Z,0.40
2022-11-04T04:13:18.871Z,0.50
2022-11-04T04:15:53.395Z,0.90
2022-11-04T04:18:30.538Z,0.70
2022-11-04T04:21:02.876Z,0.77
2022-11-04T04:23:50.699Z,0.60
2022-11-04T04:26:38.826Z,0.63
2022-11-04T04:29:09.429Z,0.50
2022-11-04T04:31:51.240Z,0.40
2022-11-04T04:34:23.239Z,0.70
2022-11-04T04:36:58.166Z,0.50
2022-11-04T04:39:47.901Z,0.67
2022-11-04T04:42:33.464Z,0.50
2022-11-04T04:45:06.715Z,0.40
2022-11-04T04:47:44.922Z,0.50
2022-11-04T04:50:16.285Z,0.50
2022-11-04T04:52:47.071Z,0.70
2022-11-04T04:55:16.525Z,0.40
2022-11-04T04:57:44.496Z,0.40
2022-11-04T05:00:15.450Z,0.50
2022-11-04T05:02:43.737Z,0.40
2022-11-04T05:05:13.256Z,0.40
2022-11-04T05:07:42.574Z,0.50
2022-11-04T05:10:12.061Z,0.50
2022-11-04T05:12:58.959Z,0.90
2022-11-04T05:15:27.643Z,0.50
2022-11-04T05:17:56.503Z,0.43
2022-11-04T05:20:24.878Z,0.50
2022-11-04T05:22:55.673Z,0.50
2022-11-04T05:25:23.625Z,0.70
2022-11-04T05:27:51.589Z,0.73
2022-11-04T05:30:19.789Z,0.70
2022-11-04T05:32:47.775Z,0.83
2022-11-04T05:35:15.792Z,0.50
2022-11-04T05:37:43.736Z,0.70
2022-11-04T05:40:13.910Z,1.07
2022-11-04T05:42:41.871Z,0.50
2022-11-04T05:45:10.761Z,0.40
2022-11-04T05:47:38.747Z,0.90
2022-11-04T05:50:07.434Z,0.90
2022-11-04T05:52:35.439Z,0.57
2022-11-04T05:55:03.371Z,0.70
2022-11-04T05:57:32.675Z,0.57
2022-11-04T06:00:00.614Z,0.50
2022-11-04T06:02:28.683Z,0.60
2022-11-04T06:04:56.704Z,0.50
2022-11-04T06:07:24.647Z,0.50
2022-11-04T06:09:52.602Z,0.53
2022-11-04T06:12:20.534Z,0.50
2022-11-04T06:14:49.853Z,0.63
2022-11-04T06:17:19.111Z,1.00
2022-11-04T06:19:47.497Z,0.87
2022-11-04T06:22:16.776Z,1.10
2022-11-04T06:24:44.844Z,0.50
2022-11-04T06:27:13.861Z,0.57
2022-11-04T06:29:42.837Z,0.50
2022-11-04T06:32:14.044Z,0.50
2022-11-04T06:34:42.198Z,0.40
2022-11-04T06:37:10.780Z,0.80
2022-11-04T06:39:39.017Z,1.17
2022-11-04T06:42:07.207Z,0.70
2022-11-04T06:44:35.541Z,0.60
2022-11-04T06:47:03.583Z,0.70
2022-11-04T06:49:32.889Z,0.63
2022-11-04T06:52:02.474Z,0.70
2022-11-04T06:54:30.442Z,0.80
2022-11-04T06:56:58.397Z,0.77
2022-11-04T06:59:26.335Z,0.40
2022-11-04T07:01:54.605Z,0.60
2022-11-04T07:04:22.773Z,0.50
2022-11-04T07:06:52.105Z,0.40
2022-11-04T07:09:20.235Z,0.90
2022-11-04T07:11:48.445Z,0.60
2022-11-04T07:14:16.407Z,0.50
2022-11-04T07:16:44.941Z,0.53
2022-11-04T07:19:12.900Z,0.43
2022-11-04T07:21:40.875Z,1.23
2022-11-04T07:24:10.308Z,0.70
2022-11-04T07:26:38.254Z,0.50
2022-11-04T07:29:06.776Z,0.50
2022-11-04T07:31:34.909Z,1.33
2022-11-04T07:34:03.152Z,0.53
2022-11-04T07:36:31.384Z,0.50
2022-11-04T07:38:59.367Z,0.60
2022-11-04T07:41:29.449Z,0.50
2022-11-04T07:43:58.908Z,0.50
2022-11-04T07:46:26.960Z,0.40
2022-11-04T07:48:58.177Z,0.57
2022-11-04T07:51:27.303Z,0.50
2022-11-04T07:53:56.556Z,0.50
2022-11-04T07:56:25.036Z,0.47
2022-11-04T07:58:54.788Z,0.50
2022-11-04T08:01:24.816Z,0.40
2022-11-04T08:03:53.330Z,0.50
2022-11-04T08:06:22.221Z,0.50
2022-11-04T08:08:50.203Z,0.87
2022-11-04T08:11:20.651Z,0.60
2022-11-04T08:13:48.889Z,0.80
2022-11-04T08:16:20.210Z,0.50
2022-11-04T08:18:49.456Z,0.43
2022-11-04T08:21:17.971Z,0.60
2022-11-04T08:23:46.177Z,0.50
2022-11-04T08:26:18.391Z,0.90
2022-11-04T08:28:47.659Z,0.70
2022-11-04T08:31:19.973Z,0.90
2022-11-04T08:33:48.330Z,0.60
2022-11-04T08:36:18.600Z,0.60
2022-11-04T08:38:46.745Z,0.60
2022-11-04T08:41:16.298Z,0.80
2022-11-04T08:43:44.396Z,0.50
2022-11-04T08:46:13.113Z,0.47
2022-11-04T08:48:43.243Z,0.50
2022-11-04T08:51:17.775Z,0.80
2022-11-04T08:53:45.845Z,0.50
2022-11-04T08:56:17.052Z,0.73
2022-11-04T08:58:45.168Z,0.40
2022-11-04T09:01:13.819Z,0.60
2022-11-04T09:03:43.785Z,0.60
2022-11-04T09:06:17.237Z,0.53
2022-11-04T09:08:45.266Z,0.47
2022-11-04T09:11:15.268Z,0.80
2022-11-04T09:13:43.901Z,0.60
2022-11-04T09:16:13.635Z,0.50
2022-11-04T09:18:43.366Z,0.40
2022-11-04T09:21:11.959Z,0.50
2022-11-04T09:23:40.475Z,0.50
2022-11-04T09:26:10.965Z,0.53
2022-11-04T09:28:38.995Z,0.60
2022-11-04T09:31:08.582Z,0.47
2022-11-04T09:33:36.510Z,0.60
2022-11-04T09:36:06.289Z,0.60
2022-11-04T09:38:34.269Z,0.97
2022-11-04T09:41:02.487Z,0.77
2022-11-04T09:43:40.868Z,0.70
2022-11-04T09:46:12.801Z,0.53
2022-11-04T09:48:45.647Z,0.60
2022-11-04T09:51:39.773Z,0.67
2022-11-04T09:54:11.723Z,0.43
2022-11-04T09:56:43.391Z,0.70
2022-11-04T09:59:16.210Z,0.93
2022-11-04T10:01:53.122Z,0.40
2022-11-04T10:04:29.633Z,0.60
2022-11-04T10:07:11.240Z,0.70
2022-11-04T10:09:50.552Z,0.60
2022-11-04T10:12:29.176Z,0.50
2022-11-04T10:15:16.214Z,0.70
2022-11-04T10:18:00.027Z,0.70
2022-11-04T10:20:43.595Z,0.50
2022-11-04T10:23:22.651Z,0.50
2022-11-04T10:25:58.362Z,0.73
2022-11-04T10:28:32.331Z,0.50
2022-11-04T10:31:01.239Z,0.60
2022-11-04T10:33:33.866Z,0.80
2022-11-04T10:36:04.274Z,0.60
2022-11-04T10:38:39.285Z,0.60
2022-11-04T10:41:21.414Z,0.60
2022-11-04T10:43:50.348Z,0.60
2022-11-04T10:46:35.643Z,0.60
2022-11-04T10:49:25.488Z,0.90
2022-11-04T10:51:54.817Z,0.70
2022-11-04T10:54:26.074Z,0.60
2022-11-04T10:56:56.007Z,0.80
2022-11-04T10:59:27.733Z,0.60
2022-11-04T11:01:57.508Z,0.83
2022-11-04T11:04:28.230Z,0.53
2022-11-04T11:06:57.733Z,0.60
2022-11-04T11:09:29.913Z,0.67
2022-11-04T11:12:01.251Z,0.50
2022-11-04T11:14:35.437Z,0.60
2022-11-04T11:17:21.307Z,0.60
2022-11-04T11:19:57.141Z,0.90
2022-11-04T11:22:37.164Z,0.77
2022-11-04T11:25:25.667Z,0.90
2022-11-04T11:27:55.855Z,0.70
2022-11-04T11:30:31.855Z,0.60
2022-11-04T11:33:03.832Z,0.53
2022-11-04T11:35:41.302Z,0.70
2022-11-04T11:38:19.583Z,0.60
2022-11-04T11:41:18.680Z,0.77
2022-11-04T11:43:45.150Z,0.97
2022-11-04T11:46:14.478Z,0.63
2022-11-04T11:48:44.464Z,0.67
2022-11-04T11:51:14.942Z,0.50
2022-11-04T11:54:03.129Z,0.67
2022-11-04T11:56:59.111Z,0.80
2022-11-04T12:02:35.677Z,0.67
2022-11-04T12:10:54.318Z,0.77
2022-11-04T12:13:29.106Z,0.60
2022-11-04T12:16:18.259Z,0.50
2022-11-04T12:19:14.390Z,0.70
2022-11-04T12:21:48.189Z,0.60
2022-11-04T12:24:28.557Z,0.77
2022-11-04T12:27:02.872Z,0.63
2022-11-04T12:29:52.891Z,0.50
2022-11-04T12:32:31.093Z,0.60
2022-11-04T12:35:12.693Z,0.70
2022-11-04T12:37:54.150Z,0.50
2022-11-04T12:40:26.441Z,0.50
2022-11-04T12:43:17.751Z,0.60
2022-11-04T12:45:59.675Z,0.50
2022-11-04T12:48:44.469Z,0.70
2022-11-04T12:51:18.464Z,0.70
2022-11-04T12:54:04.127Z,0.50
2022-11-04T12:56:38.502Z,0.50
2022-11-04T12:59:26.797Z,0.57
2022-11-04T13:01:59.348Z,0.50
2022-11-04T13:04:32.554Z,0.67
2022-11-04T13:07:04.423Z,0.50
2022-11-04T13:09:38.250Z,0.70
2022-11-04T13:12:11.435Z,0.70
2022-11-04T13:14:46.020Z,0.50
2022-11-04T13:17:20.674Z,0.87
2022-11-04T13:19:52.224Z,1.20
2022-11-04T13:22:25.236Z,0.60
2022-11-04T13:24:57.814Z,0.60
2022-11-04T13:27:28.040Z,0.90
2022-11-04T13:30:07.193Z,1.00
2022-11-04T13:32:41.720Z,1.33
2022-11-04T13:35:18.818Z,0.73
2022-11-04T13:37:55.113Z,0.50
2022-11-04T13:40:27.965Z,0.80
2022-11-04T13:43:40.096Z,0.87
2022-11-04T13:46:23.675Z,0.70
2022-11-04T13:49:01.068Z,0.60
2022-11-04T13:51:41.021Z,0.50
2022-11-04T13:54:26.302Z,0.83
2022-11-04T13:57:06.971Z,0.53
2022-11-04T13:59:35.414Z,0.60
2022-11-04T14:02:39.530Z,0.50
2022-11-04T14:05:50.233Z,0.80
2022-11-04T14:08:19.633Z,0.60
2022-11-04T14:11:01.602Z,0.90
2022-11-04T14:14:05.552Z,0.50
2022-11-04T14:16:44.443Z,0.60
2022-11-04T14:19:57.919Z,0.60
2022-11-04T14:22:37.500Z,0.70
2022-11-04T14:25:25.980Z,0.70
2022-11-04T14:27:55.727Z,0.90
2022-11-04T14:30:46.274Z,9.27
2022-11-04T14:33:33.321Z,13.07
2022-11-04T14:36:31.261Z,7.87
2022-11-04T14:39:02.696Z,1.67
2022-11-04T14:42:06.749Z,1.10
2022-11-04T14:44:39.863Z,0.70
2022-11-04T14:47:18.437Z,0.80
2022-11-04T14:49:48.389Z,0.93
2022-11-04T14:52:24.145Z,0.70
2022-11-04T14:54:57.063Z,0.90
2022-11-04T14:57:25.591Z,1.50
2022-11-04T14:59:55.295Z,0.50
2022-11-04T15:02:25.154Z,0.80
2022-11-04T15:04:58.723Z,1.60
2022-11-04T15:07:34.978Z,1.00
2022-11-04T15:10:18.371Z,0.60
2022-11-04T15:12:52.453Z,1.20
2022-11-04T15:15:38.563Z,0.70
2022-11-04T15:18:09.138Z,0.70
2022-11-04T15:20:42.263Z,0.80
2022-11-04T15:23:17.513Z,2.10
2022-11-04T15:25:47.282Z,1.70
2022-11-04T15:28:20.754Z,1.10
2022-11-04T15:31:01.890Z,1.13
2022-11-04T15:33:31.632Z,1.40
2022-11-04T15:36:00.435Z,3.03
2022-11-04T15:38:29.723Z,3.67
2022-11-04T15:41:20.658Z,3.47
2022-11-04T15:43:48.901Z,3.20
2022-11-04T15:46:20.819Z,2.07
2022-11-04T15:49:02.523Z,1.97
2022-11-04T15:51:31.942Z,2.03
2022-11-04T15:54:01.996Z,1.70
2022-11-04T15:56:34.362Z,1.50
2022-11-04T15:59:02.907Z,1.00
2022-11-04T16:01:32.814Z,0.67
2022-11-04T16:04:02.822Z,0.87
2022-11-04T16:06:36.391Z,1.03
2022-11-04T16:09:08.207Z,1.37
2022-11-04T16:11:36.614Z,0.70
2022-11-04T16:14:23.531Z,1.87
2022-11-04T16:16:54.266Z,1.00
2022-11-04T16:19:25.331Z,0.83
2022-11-04T16:22:01.013Z,1.00
2022-11-04T16:24:32.275Z,0.60
2022-11-04T16:27:00.560Z,0.70
2022-11-04T16:29:32.623Z,1.30
2022-11-04T16:32:17.970Z,1.43
2022-11-04T16:34:47.019Z,1.63
2022-11-04T16:37:15.180Z,2.00
2022-11-04T16:39:45.132Z,2.10
2022-11-04T16:42:15.261Z,1.60
2022-11-04T16:44:48.063Z,0.80
2022-11-04T16:47:18.610Z,1.03
2022-11-04T16:49:47.079Z,0.63
2022-11-04T16:52:20.404Z,0.77
2022-11-04T16:54:49.128Z,0.67
2022-11-04T16:57:17.632Z,0.83
2022-11-04T16:59:45.549Z,1.03
2022-11-04T17:02:23.878Z,0.60
2022-11-04T17:04:51.975Z,1.37
2022-11-04T17:07:20.096Z,0.70
2022-11-04T17:09:48.101Z,1.00
2022-11-04T17:12:16.179Z,0.60
2022-11-04T17:14:44.111Z,0.63
2022-11-04T17:17:13.031Z,0.60
2022-11-04T17:19:42.315Z,0.87
2022-11-04T17:22:12.235Z,0.70
2022-11-04T17:24:40.256Z,0.70
2022-11-04T17:27:08.175Z,0.80
2022-11-04T17:29:37.368Z,0.60
2022-11-04T17:32:05.944Z,0.50
2022-11-04T17:34:34.029Z,0.90
2022-11-04T17:37:03.727Z,0.67
2022-11-04T17:39:31.654Z,1.47
2022-11-04T17:42:16.912Z,1.37
2022-11-04T17:44:44.820Z,0.93
2022-11-04T17:47:12.766Z,0.70
2022-11-04T17:49:41.475Z,0.70
2022-11-04T17:52:10.851Z,0.80
2022-11-04T17:54:38.789Z,0.60
2022-11-04T17:57:07.289Z,0.93
2022-11-04T17:59:36.962Z,1.00
2022-11-04T18:02:05.463Z,2.07
2022-11-04T18:04:33.623Z,0.60
2022-11-04T18:07:03.117Z,1.70
2022-11-04T18:09:34.797Z,1.33
2022-11-04T18:12:20.446Z,1.53
2022-11-04T18:14:48.371Z,1.30
2022-11-04T18:17:16.280Z,1.50
2022-11-04T18:19:44.184Z,1.20
2022-11-04T18:22:12.135Z,1.20
2022-11-04T18:24:41.820Z,1.27
2022-11-04T18:27:10.560Z,1.37
2022-11-04T18:29:38.562Z,1.07
2022-11-04T18:32:07.095Z,0.67
2022-11-04T18:34:35.687Z,0.80
2022-11-04T18:37:03.692Z,0.80
2022-11-04T18:39:31.625Z,1.20
2022-11-04T18:42:00.944Z,1.30
2022-11-04T18:44:28.890Z,0.87
2022-11-04T18:46:56.831Z,0.90
2022-11-04T18:49:24.806Z,0.70
2022-11-04T18:51:52.749Z,0.60
2022-11-04T18:54:20.782Z,0.60
2022-11-04T18:56:48.720Z,1.07
2022-11-04T18:59:18.360Z,1.13
2022-11-04T19:01:46.477Z,0.80
2022-11-04T19:04:14.610Z,0.60
2022-11-04T19:06:44.653Z,0.60
2022-11-04T19:12:21.339Z,0.60
2022-11-04T19:14:50.872Z,1.37
2022-11-04T19:17:19.114Z,1.07
2022-11-04T19:19:47.086Z,1.13
2022-11-04T19:22:15.335Z,1.27
2022-11-04T19:24:43.286Z,2.50
2022-11-04T19:27:11.246Z,1.00
2022-11-04T19:29:39.535Z,1.97
2022-11-04T19:32:13.762Z,0.90
2022-11-04T19:34:42.020Z,0.70
2022-11-04T19:37:10.591Z,1.30
2022-11-04T19:39:38.917Z,1.40
2022-11-04T19:42:29.687Z,1.63
2022-11-04T19:44:57.926Z,2.17
2022-11-04T19:47:27.218Z,2.67
2022-11-04T19:49:55.455Z,2.03
2022-11-04T19:52:23.406Z,2.20
2022-11-04T19:54:51.414Z,1.77
2022-11-04T19:57:19.347Z,1.00
2022-11-04T19:59:47.319Z,1.60
2022-11-04T20:02:16.086Z,2.13
2022-11-04T20:04:46.566Z,1.67
2022-11-04T20:07:14.522Z,1.70
2022-11-04T20:09:42.634Z,1.07
2022-11-04T20:12:27.899Z,1.33
2022-11-04T20:14:56.736Z,0.80
2022-11-04T20:17:25.072Z,1.37
2022-11-04T20:19:54.365Z,1.00
2022-11-04T20:22:22.344Z,1.70
2022-11-04T20:24:50.521Z,1.90
2022-11-04T20:27:18.459Z,1.47
2022-11-04T20:29:46.465Z,2.03
2022-11-04T20:32:14.376Z,0.73
2022-11-04T20:34:42.285Z,1.30
2022-11-04T20:37:12.540Z,1.00
2022-11-04T20:39:40.541Z,1.23
2022-11-04T20:42:08.533Z,1.73
2022-11-04T20:44:36.450Z,0.67
2022-11-04T20:47:04.901Z,1.57
2022-11-04T20:49:32.813Z,1.30
2022-11-04T20:52:00.717Z,1.93
2022-11-04T20:54:30.619Z,0.80
2022-11-04T20:56:58.528Z,0.70
2022-11-04T20:59:27.456Z,0.70
2022-11-04T21:01:55.615Z,0.57
2022-11-04T21:04:24.359Z,1.27
2022-11-04T21:06:53.093Z,1.10
2022-11-04T21:09:22.271Z,1.30
2022-11-04T21:11:51.529Z,0.90
2022-11-04T21:14:20.257Z,1.00
2022-11-04T21:16:48.615Z,1.03
2022-11-04T21:19:17.076Z,1.20
2022-11-04T21:21:47.023Z,0.90
2022-11-04T21:24:16.585Z,0.80
2022-11-04T21:26:45.544Z,1.00
2022-11-04T21:29:17.839Z,1.80
2022-11-04T21:31:46.974Z,0.60
2022-11-04T21:34:15.259Z,1.53
2022-11-04T21:36:43.346Z,0.87
2022-11-04T21:39:13.028Z,1.23
2022-11-04T21:41:41.091Z,1.27
2022-11-04T21:44:11.224Z,0.60
2022-11-04T21:46:40.563Z,0.60
2022-11-04T21:49:08.568Z,0.60
2022-11-04T21:51:36.468Z,1.17
2022-11-04T21:54:07.574Z,1.17
2022-11-04T21:56:35.968Z,0.90
2022-11-04T21:59:04.836Z,1.43
2022-11-04T22:01:33.658Z,1.53
2022-11-04T22:04:03.820Z,1.33
2022-11-04T22:06:35.004Z,1.00
2022-11-04T22:09:04.489Z,1.17
2022-11-04T22:11:33.626Z,1.13
2022-11-04T22:14:03.848Z,1.20
2022-11-04T22:16:33.937Z,1.90
2022-11-04T22:19:05.602Z,1.13
2022-11-04T22:21:34.161Z,0.70
2022-11-04T22:24:02.858Z,0.77
2022-11-04T22:26:32.769Z,1.17
2022-11-04T22:29:01.481Z,0.67
2022-11-04T22:31:30.984Z,0.80
2022-11-04T22:33:59.837Z,0.80
2022-11-04T22:36:30.075Z,0.80
2022-11-04T22:38:58.212Z,1.17
2022-11-04T22:41:28.073Z,0.73
2022-11-04T22:43:57.058Z,0.70
2022-11-04T22:46:27.618Z,1.77
2022-11-04T22:48:55.834Z,0.67
2022-11-04T22:51:23.776Z,0.87
2022-11-04T22:53:57.862Z,1.40
2022-11-04T22:56:28.229Z,0.80
2022-11-04T22:58:56.282Z,1.03
2022-11-04T23:01:26.028Z,1.00
2022-11-04T23:03:54.512Z,1.23
2022-11-04T23:06:22.559Z,0.80
2022-11-04T23:08:59.585Z,0.87
2022-11-04T23:11:48.351Z,0.50
2022-11-04T23:14:35.657Z,0.60
2022-11-04T23:17:22.379Z,1.07
2022-11-04T23:19:51.464Z,1.23
2022-11-04T23:22:36.853Z,0.70
2022-11-04T23:25:09.692Z,0.50
2022-11-04T23:27:58.823Z,0.80
2022-11-04T23:30:30.718Z,1.07
2022-11-04T23:33:00.133Z,0.80
2022-11-04T23:35:48.996Z,0.80
2022-11-04T23:38:17.172Z,0.60
2022-11-04T23:41:05.831Z,1.20
2022-11-04T23:43:35.298Z,0.70
2022-11-04T23:46:20.912Z,0.80
2022-11-04T23:49:20.900Z,0.70
2022-11-04T23:52:06.269Z,1.27
2022-11-04T23:54:51.746Z,1.00
2022-11-04T23:57:37.784Z,1.97
